Time;durP1;ratioP1;P1;durP2;ratioP2;P2;SDS_P1;SDS_P2;PMS_P1;PMS_P2;Temp;Humidity;BMP_temperature;BMP_pressure;BME280_temperature;BME280_humidity;BME280_pressure;Samples;Min_cycle;Max_cycle;Signal;HPM_P1;HPM_P2
2023/10/06 00:01:20;;;;;;;2.50;1.35;;;12.90;99.90;;;13.04;100.00;102040.78;5276971;27;20047;-49
2023/10/06 00:03:57;;;;;;;3.45;1.45;;;12.90;99.90;;;13.03;100.00;102044.19;5274932;27;20055;-48
2023/10/06 00:06:33;;;;;;;2.75;1.48;;;12.90;99.90;;;13.00;100.00;102054.53;5272865;28;20053;-49
2023/10/06 00:09:09;;;;;;;3.75;1.50;;;12.90;99.90;;;12.96;100.00;102056.94;5279283;27;20043;-49
2023/10/06 00:11:44;;;;;;;3.58;1.50;;;12.80;99.90;;;12.92;100.00;102049.78;5276320;27;20039;-49
2023/10/06 00:14:38;;;;;;;3.00;1.38;;;12.80;99.90;;;12.90;100.00;102046.19;5274430;28;20039;-49
2023/10/06 00:17:15;;;;;;;5.97;1.58;;;12.80;99.90;;;12.90;100.00;102039.22;5268732;28;20059;-49
2023/10/06 00:19:51;;;;;;;3.90;1.48;;;12.80;99.90;;;12.93;100.00;102041.13;5269935;27;20104;-49
2023/10/06 00:22:26;;;;;;;5.63;2.17;;;12.80;99.90;;;12.96;100.00;102033.38;5277623;27;20371;-50
2023/10/06 00:25:00;;;;;;;3.50;1.52;;;12.80;99.90;;;12.97;100.00;102037.78;5276801;27;20047;-49
2023/10/06 00:27:32;;;;;;;4.45;1.83;;;12.90;99.90;;;13.01;100.00;102031.88;5273651;27;20161;-49
2023/10/06 00:30:11;;;;;;;4.00;1.48;;;12.90;99.90;;;13.03;100.00;102038.94;5277739;27;20042;-48
2023/10/06 00:32:47;;;;;;;2.83;1.65;;;12.90;99.90;;;13.08;100.00;102041.78;5274182;27;20096;-49
2023/10/06 00:35:29;;;;;;;2.22;1.40;;;13.00;99.90;;;13.11;100.00;102052.41;5272608;27;20050;-50
2023/10/06 00:38:12;;;;;;;3.33;1.70;;;13.00;99.90;;;13.15;100.00;102038.59;5271161;27;20043;-49
2023/10/06 00:40:51;;;;;;;2.38;1.30;;;13.00;99.90;;;13.17;100.00;102046.53;5276228;27;20039;-48
2023/10/06 00:43:34;;;;;;;4.00;1.50;;;13.00;99.90;;;13.17;100.00;102044.81;5276966;27;20039;-49
2023/10/06 00:46:07;;;;;;;3.20;1.70;;;13.00;99.90;;;13.14;100.00;102034.22;5281265;27;20066;-49
2023/10/06 00:48:41;;;;;;;3.15;1.83;;;13.00;99.90;;;13.14;100.00;102031.59;5276079;27;20413;-49
2023/10/06 00:51:19;;;;;;;3.97;1.60;;;13.10;99.90;;;13.14;100.00;102036.81;5286180;28;20031;-48
2023/10/06 00:53:52;;;;;;;4.82;1.85;;;13.10;99.90;;;13.16;100.00;102039.50;5278981;27;20066;-48
2023/10/06 00:56:28;;;;;;;4.90;1.80;;;13.00;99.90;;;13.15;100.00;102038.59;5274533;27;20097;-50
2023/10/06 00:59:04;;;;;;;4.43;1.60;;;13.00;99.90;;;13.15;100.00;102043.84;5280573;27;20061;-49
2023/10/06 01:01:36;;;;;;;3.03;1.67;;;13.10;99.90;;;13.15;100.00;102035.09;5287090;27;20063;-50
2023/10/06 01:04:11;;;;;;;3.83;1.63;;;13.00;99.90;;;13.15;100.00;102038.59;5272813;28;20040;-49
2023/10/06 01:06:43;;;;;;;4.35;1.70;;;13.00;99.90;;;13.16;100.00;102032.53;5273801;27;20536;-49
2023/10/06 01:09:16;;;;;;;5.07;1.58;;;13.10;99.90;;;13.17;100.00;102036.97;5269448;28;20047;-49
2023/10/06 01:11:51;;;;;;;2.90;1.55;;;13.10;99.90;;;13.17;100.00;102030.81;5271858;27;20048;-47
2023/10/06 01:14:26;;;;;;;3.20;1.63;;;13.00;99.90;;;13.15;100.00;102007.19;5293606;27;20112;-49
2023/10/06 01:17:14;;;;;;;4.00;1.80;;;13.10;99.90;;;13.15;100.00;102011.53;5277389;27;20404;-49
2023/10/06 01:19:53;;;;;;;3.67;1.40;;;13.00;99.90;;;13.15;100.00;102016.78;5274372;27;20056;-49
2023/10/06 01:22:28;;;;;;;2.15;1.35;;;13.00;99.90;;;13.10;100.00;102016.56;5275407;27;20046;-49
2023/10/06 01:25:12;;;;;;;3.55;1.70;;;13.00;99.90;;;13.09;100.00;102017.38;5272989;28;20182;-48
2023/10/06 01:27:44;;;;;;;3.67;1.52;;;13.00;99.90;;;13.04;100.00;102019.81;5273610;27;20526;-49
2023/10/06 01:30:20;;;;;;;2.75;1.73;;;12.90;99.90;;;13.00;100.00;102017.88;5277307;27;20450;-49
2023/10/06 01:32:58;;;;;;;3.53;1.60;;;12.90;99.90;;;12.95;100.00;102018.50;5279952;27;20498;-48
2023/10/06 01:35:33;;;;;;;4.15;1.42;;;12.90;99.90;;;12.90;100.00;102014.78;5269906;27;20089;-49
2023/10/06 01:38:13;;;;;;;3.75;1.70;;;12.80;99.90;;;12.87;100.00;102010.31;5290339;27;20435;-50
2023/10/06 01:40:51;;;;;;;4.15;2.13;;;12.80;99.90;;;12.88;100.00;102008.59;5269434;28;20044;-49
2023/10/06 01:43:29;;;;;;;5.30;1.55;;;12.80;99.90;;;12.89;100.00;102007.75;5279087;27;20103;-49
2023/10/06 01:46:03;;;;;;;3.35;1.48;;;12.80;99.90;;;12.90;100.00;102007.81;5288324;27;20047;-48
2023/10/06 01:48:39;;;;;;;4.25;1.10;;;12.80;99.90;;;12.92;100.00;101997.44;5278524;27;20562;-49
2023/10/06 01:51:15;;;;;;;2.67;1.48;;;12.80;99.90;;;12.91;100.00;101995.63;5275771;28;20051;-48
2023/10/06 01:53:49;;;;;;;3.08;1.50;;;12.80;99.90;;;12.92;100.00;101993.09;5279090;28;20048;-49
2023/10/06 01:56:24;;;;;;;4.20;1.60;;;12.80;99.90;;;12.92;100.00;101993.09;5274351;28;20151;-49
2023/10/06 01:58:56;;;;;;;3.85;1.45;;;12.80;99.90;;;12.92;100.00;101993.09;5277353;27;20100;-50
2023/10/06 02:01:28;;;;;;;2.45;1.55;;;12.80;99.90;;;12.92;100.00;101993.09;5275420;28;20046;-48
2023/10/06 02:04:01;;;;;;;3.75;1.50;;;12.80;99.90;;;12.94;100.00;101995.78;5291541;27;20039;-48
2023/10/06 02:06:41;;;;;;;2.22;1.52;;;12.80;99.90;;;12.94;100.00;101996.69;5277406;27;20052;-48
2023/10/06 02:09:16;;;;;;;2.40;1.40;;;12.80;99.90;;;12.97;100.00;101990.66;5273358;28;20130;-49
2023/10/06 02:11:50;;;;;;;3.85;1.83;;;12.90;99.90;;;12.96;100.00;101981.03;5266778;28;20048;-50
2023/10/06 02:14:22;;;;;;;2.85;1.85;;;12.80;99.90;;;12.96;100.00;101978.41;5272572;28;20428;-49
2023/10/06 02:16:55;;;;;;;3.38;1.48;;;12.90;99.90;;;12.96;100.00;101975.78;5270807;28;20536;-49
2023/10/06 02:19:28;;;;;;;3.55;1.88;;;12.90;99.90;;;12.94;100.00;101978.34;5267581;28;20055;-49
2023/10/06 02:22:01;;;;;;;2.92;2.00;;;12.90;99.90;;;12.93;100.00;101975.69;5271810;28;20043;-48
2023/10/06 02:24:35;;;;;;;3.42;1.70;;;12.90;99.90;;;12.91;100.00;101985.16;5274763;28;20044;-48
2023/10/06 02:27:09;;;;;;;2.83;1.40;;;12.80;99.90;;;12.89;100.00;101997.28;5285133;27;20038;-49
2023/10/06 02:29:43;;;;;;;2.63;1.35;;;12.80;99.90;;;12.87;100.00;101992.00;5296908;27;20111;-49
2023/10/06 02:32:16;;;;;;;2.30;1.40;;;12.80;99.90;;;12.87;100.00;101998.97;5275934;28;20054;-49
2023/10/06 02:34:49;;;;;;;7.63;1.90;;;12.70;99.90;;;12.85;100.00;101992.78;5279423;27;20075;-49
2023/10/06 02:37:24;;;;;;;3.42;1.88;;;12.80;99.90;;;12.82;100.00;101990.00;5274190;27;20435;-50
2023/10/06 02:39:59;;;;;;;2.95;1.50;;;12.70;99.90;;;12.79;100.00;101987.28;5286447;28;20119;-49
2023/10/06 02:42:33;;;;;;;2.90;1.70;;;12.70;99.90;;;12.76;100.00;101996.75;5276114;27;20683;-48
2023/10/06 02:45:09;;;;;;;2.13;1.75;;;12.70;99.90;;;12.74;100.00;101992.28;5274618;27;20466;-48
2023/10/06 02:47:42;;;;;;;3.05;1.50;;;12.70;99.90;;;12.73;100.00;101996.63;5278022;28;20138;-49
2023/10/06 02:50:20;;;;;;;4.22;2.13;;;12.60;99.90;;;12.72;100.00;101991.34;5275280;27;20429;-48
2023/10/06 02:52:56;;;;;;;3.03;1.50;;;12.60;99.90;;;12.68;100.00;101982.44;5289335;27;20054;-49
2023/10/06 02:55:33;;;;;;;4.72;1.90;;;12.60;99.90;;;12.65;100.00;101986.63;5276493;28;20456;-48
2023/10/06 02:58:05;;;;;;;4.15;1.65;;;12.60;99.90;;;12.61;100.00;101983.00;5272375;28;20031;-49
2023/10/06 03:00:38;;;;;;;3.95;2.08;;;12.50;99.90;;;12.58;100.00;101984.56;5272390;28;20465;-49
2023/10/06 03:03:17;;;;;;;4.75;1.92;;;12.50;99.90;;;12.56;100.00;101983.59;5283061;27;20108;-48
2023/10/06 03:05:53;;;;;;;2.72;1.60;;;12.50;99.90;;;12.55;100.00;101985.31;5269381;28;20039;-49
2023/10/06 03:08:28;;;;;;;4.30;2.00;;;12.50;99.90;;;12.55;100.00;101974.84;5277806;27;20461;-48
2023/10/06 03:11:04;;;;;;;4.20;1.73;;;12.50;99.90;;;12.57;100.00;101988.88;5274310;28;20052;-49
2023/10/06 03:13:36;;;;;;;4.32;1.85;;;12.50;99.90;;;12.56;100.00;101979.25;5279297;27;20501;-48
2023/10/06 03:16:11;;;;;;;2.20;1.75;;;12.50;99.90;;;12.54;100.00;101982.66;5275268;28;20463;-48
2023/10/06 03:18:44;;;;;;;2.88;1.58;;;12.40;99.90;;;12.53;100.00;101980.84;5273750;27;20075;-49
2023/10/06 03:21:18;;;;;;;2.75;1.45;;;12.40;99.90;;;12.48;100.00;101983.25;5274616;27;20054;-49
2023/10/06 03:23:57;;;;;;;3.95;1.67;;;12.40;99.90;;;12.45;100.00;101983.09;5278169;27;20431;-50
2023/10/06 03:26:34;;;;;;;3.75;1.50;;;12.40;99.90;;;12.43;100.00;101985.66;5274203;28;20097;-49
2023/10/06 03:29:11;;;;;;;2.63;1.40;;;12.40;99.90;;;12.46;100.00;101992.75;5276150;28;20040;-48
2023/10/06 03:31:45;;;;;;;2.85;1.30;;;12.40;99.90;;;12.46;100.00;101985.81;5275528;27;20040;-50
2023/10/06 03:34:22;;;;;;;2.30;1.42;;;12.40;99.90;;;12.48;100.00;101991.09;5273283;28;20043;-47
2023/10/06 03:36:56;;;;;;;2.67;1.60;;;12.40;99.90;;;12.47;100.00;101994.53;5270906;28;20048;-49
2023/10/06 03:39:30;;;;;;;2.30;1.27;;;12.40;99.90;;;12.45;100.00;101989.25;5277322;27;20043;-49
2023/10/06 03:42:11;;;;;;;2.28;1.52;;;12.40;99.90;;;12.40;100.00;101989.84;5274642;28;20054;-49
2023/10/06 03:44:45;;;;;;;2.78;1.30;;;12.30;99.90;;;12.37;100.00;102000.16;5273578;27;20058;-49
2023/10/06 03:47:18;;;;;;;4.07;1.75;;;12.30;99.90;;;12.31;100.00;101992.91;5277179;27;20054;-49
2023/10/06 03:49:51;;;;;;;2.92;1.50;;;12.30;99.90;;;12.26;100.00;101997.06;5278983;28;20047;-50
2023/10/06 03:52:24;;;;;;;3.08;1.30;;;12.20;99.90;;;12.19;100.00;101987.13;5278608;27;20059;-49
2023/10/06 03:54:58;;;;;;;3.08;1.48;;;12.10;99.90;;;12.12;100.00;101991.16;5279210;27;20074;-49
2023/10/06 03:57:32;;;;;;;3.30;1.50;;;12.10;99.90;;;12.08;100.00;101993.56;5276398;27;20071;-48
2023/10/06 04:00:07;;;;;;;2.30;1.20;;;12.00;99.90;;;12.02;100.00;101988.94;5271992;28;20047;-48
2023/10/06 04:02:48;;;;;;;2.75;1.50;;;11.90;99.90;;;11.99;100.00;101986.16;5288066;27;20053;-49
2023/10/06 04:05:21;;;;;;;4.68;1.60;;;11.90;99.90;;;11.98;100.00;101984.38;5276880;28;20047;-49
2023/10/06 04:07:56;;;;;;;3.45;1.85;;;11.90;99.90;;;11.99;100.00;101986.16;5273584;27;20464;-49
2023/10/06 04:10:28;;;;;;;3.65;2.10;;;11.90;99.90;;;11.99;100.00;101986.16;5278676;27;20283;-48
2023/10/06 04:13:08;;;;;;;5.22;2.05;;;11.90;99.90;;;11.98;100.00;101984.38;5274594;27;20036;-49
2023/10/06 04:15:43;;;;;;;3.17;1.67;;;11.90;99.90;;;11.98;100.00;101981.78;5271188;28;20196;-50
2023/10/06 04:18:18;;;;;;;3.72;1.80;;;11.90;99.90;;;11.99;100.00;101982.66;5275261;27;20045;-49
2023/10/06 04:20:51;;;;;;;3.45;1.58;;;11.90;99.90;;;11.99;100.00;101978.34;5273812;27;20051;-49
2023/10/06 04:23:24;;;;;;;5.00;2.03;;;11.90;99.90;;;11.99;100.00;101987.88;5275347;27;20043;-48
2023/10/06 04:25:56;;;;;;;4.18;2.15;;;11.90;99.90;;;11.97;100.00;101992.16;5278181;28;20410;-49
2023/10/06 04:28:30;;;;;;;5.20;1.90;;;11.90;99.90;;;11.97;100.00;101990.44;5272561;27;20073;-48
2023/10/06 04:31:06;;;;;;;6.53;2.13;;;11.90;99.90;;;11.94;100.00;101992.91;5272219;28;20092;-49
2023/10/06 04:33:38;;;;;;;3.08;1.70;;;11.90;99.90;;;11.93;100.00;101985.88;5278496;27;20075;-48
2023/10/06 04:36:12;;;;;;;4.30;1.92;;;11.90;99.90;;;11.93;100.00;101997.25;5275586;27;20046;-49
2023/10/06 04:38:45;;;;;;;4.22;1.92;;;11.90;99.90;;;11.93;100.00;101988.47;5274297;27;20096;-49
2023/10/06 04:41:20;;;;;;;4.72;1.98;;;11.90;99.90;;;11.94;100.00;101987.69;5271361;28;20036;-49
2023/10/06 04:43:54;;;;;;;3.60;1.67;;;11.90;99.90;;;11.94;100.00;101988.59;5271284;27;20059;-48
2023/10/06 04:46:26;;;;;;;4.97;2.10;;;11.90;99.90;;;11.93;100.00;101980.66;5273667;28;20110;-49
2023/10/06 04:48:58;;;;;;;3.92;2.20;;;11.90;99.90;;;11.94;100.00;101975.53;5272514;28;20054;-48
2023/10/06 04:51:30;;;;;;;6.10;2.38;;;11.90;99.90;;;11.95;100.00;101969.47;5273528;27;20039;-49
2023/10/06 04:54:07;;;;;;;5.82;2.10;;;11.90;99.90;;;11.94;100.00;101969.41;5291969;27;20083;-48
2023/10/06 04:56:40;;;;;;;4.25;2.00;;;11.90;99.90;;;11.93;100.00;101959.75;5270207;27;20099;-49
2023/10/06 04:59:13;;;;;;;3.85;1.90;;;11.90;99.90;;;11.94;100.00;101953.72;5293288;27;20036;-48
2023/10/06 05:01:46;;;;;;;4.07;1.65;;;11.90;99.90;;;11.96;100.00;101954.69;5274063;28;20043;-49
2023/10/06 05:04:18;;;;;;;4.05;1.80;;;11.90;99.90;;;11.97;100.00;101952.97;5274669;27;20035;-49
2023/10/06 05:06:53;;;;;;;3.35;1.92;;;12.00;99.90;;;11.97;100.00;101946.00;5267203;28;20056;-49
2023/10/06 05:09:25;;;;;;;6.57;2.20;;;12.00;99.90;;;11.97;100.00;101938.16;5271317;27;20524;-49
2023/10/06 05:11:57;;;;;;;3.88;1.70;;;12.00;99.90;;;11.96;100.00;101933.78;5270922;27;20052;-49
2023/10/06 05:14:34;;;;;;;3.88;1.90;;;12.00;99.90;;;11.97;100.00;101935.56;5270646;27;20055;-48
2023/10/06 05:17:06;;;;;;;6.47;2.08;;;12.00;99.90;;;11.98;100.00;101939.97;5275918;27;20058;-49
2023/10/06 05:19:38;;;;;;;4.20;1.80;;;12.00;99.90;;;12.00;100.00;101946.19;5272012;27;20043;-49
2023/10/06 05:22:11;;;;;;;5.50;1.92;;;12.00;99.90;;;12.01;100.00;101953.19;5273610;27;20035;-50
2023/10/06 05:24:43;;;;;;;5.15;1.70;;;12.00;99.90;;;12.04;100.00;101952.44;5290510;27;20158;-49
2023/10/06 05:27:19;;;;;;;4.25;1.85;;;12.00;99.90;;;12.06;100.00;101956.91;5267829;28;20110;-49
2023/10/06 05:29:54;;;;;;;3.90;1.60;;;12.00;99.90;;;12.08;100.00;101959.59;5270432;28;20207;-49
2023/10/06 05:32:26;;;;;;;3.10;1.73;;;12.00;99.90;;;12.07;100.00;101950.88;5272523;27;20050;-49
2023/10/06 05:34:58;;;;;;;2.85;1.55;;;12.00;99.90;;;12.07;100.00;101952.59;5269326;28;20056;-48
2023/10/06 05:37:32;;;;;;;2.67;1.50;;;12.00;99.90;;;12.07;100.00;101943.03;5266717;28;20031;-49
2023/10/06 05:40:06;;;;;;;4.15;1.77;;;12.00;99.90;;;12.06;100.00;101938.63;5273541;28;20513;-49
2023/10/06 05:42:40;;;;;;;2.40;1.38;;;12.00;99.90;;;12.07;100.00;101936.91;5273509;27;20048;-49
2023/10/06 05:45:18;;;;;;;3.20;1.52;;;12.00;99.90;;;12.07;100.00;101943.03;5274247;27;20070;-49
2023/10/06 05:47:54;;;;;;;2.85;1.55;;;12.00;99.90;;;12.08;100.00;101934.34;5287556;27;20138;-49
2023/10/06 05:50:29;;;;;;;5.95;1.90;;;12.00;99.90;;;12.10;100.00;101953.59;5271399;27;20047;-48
2023/10/06 05:53:04;;;;;;;;;;;12.00;99.90;;;12.11;100.00;101952.78;5270901;27;20050;-48
2023/10/06 05:55:37;;;;;;;4.55;1.80;;;12.00;99.90;;;12.13;100.00;101952.88;5276573;28;19923;-48
2023/10/06 05:58:14;;;;;;;4.20;1.80;;;12.10;99.90;;;12.14;100.00;101950.31;5273714;28;20052;-49
2023/10/06 06:00:52;;;;;;;3.38;1.60;;;12.10;99.90;;;12.16;100.00;101946.06;5271083;28;20051;-48
2023/10/06 06:03:25;;;;;;;4.35;1.60;;;12.10;99.90;;;12.18;100.00;101949.63;5283661;27;20043;-49
2023/10/06 06:06:02;;;;;;;3.45;1.90;;;12.10;99.90;;;12.19;100.00;101948.81;5291249;27;20051;-48
2023/10/06 06:08:39;;;;;;;4.75;1.90;;;12.10;99.90;;;12.22;100.00;101956.78;5269013;28;20050;-49
2023/10/06 06:11:11;;;;;;;;;;;12.10;99.90;;;12.22;100.00;101959.41;5271324;28;20055;-49
2023/10/06 06:13:43;;;;;;;6.68;2.30;;;12.20;99.90;;;12.22;100.00;101959.41;5277352;28;20336;-48
2023/10/06 06:16:17;;;;;;;5.28;2.40;;;12.20;99.90;;;12.27;100.00;101950.91;5272499;28;20138;-49
2023/10/06 06:18:50;;;;;;;3.58;2.08;;;12.20;99.90;;;12.33;100.00;101962.53;5287684;28;20071;-49
2023/10/06 06:21:24;;;;;;;6.00;2.00;;;12.30;99.90;;;12.39;100.00;101969.78;5273652;28;20050;-50
2023/10/06 06:23:57;;;;;;;4.63;2.30;;;12.40;99.90;;;12.41;100.00;101986.41;5274017;28;20048;-49
2023/10/06 06:26:29;;;;;;;4.22;2.13;;;12.40;99.90;;;12.42;100.00;101982.97;5273710;28;20081;-48
2023/10/06 06:29:02;;;;;;;6.05;2.40;;;12.40;99.90;;;12.39;100.00;101983.75;5271218;28;20105;-48
2023/10/06 06:31:41;;;;;;;6.57;2.50;;;12.40;99.90;;;12.38;100.00;101981.03;5269049;28;20054;-48
2023/10/06 06:34:13;;;;;;;4.47;2.33;;;12.40;99.90;;;12.43;100.00;101979.53;5272715;28;20040;-49
2023/10/06 06:36:47;;;;;;;6.25;2.65;;;12.40;99.90;;;12.47;100.00;101986.69;5273443;28;20043;-48
2023/10/06 06:39:22;;;;;;;4.20;2.20;;;12.40;99.90;;;12.67;100.00;101979.75;5268017;28;20071;-49
2023/10/06 06:41:54;;;;;;;7.35;2.30;;;12.60;99.90;;;12.99;100.00;101986.41;5280595;28;20051;-49
2023/10/06 06:44:29;;;;;;;3.53;1.92;;;12.80;99.90;;;13.60;100.00;101982.91;5272935;28;20289;-47
2023/10/06 06:47:05;;;;;;;4.72;2.17;;;13.20;99.90;;;14.60;100.00;101983.41;5265954;28;20052;-48
2023/10/06 06:49:37;;;;;;;7.30;2.40;;;13.90;99.90;;;15.45;100.00;101996.97;5272110;28;20051;-48
2023/10/06 06:52:10;;;;;;;6.32;2.47;;;14.70;99.90;;;16.07;100.00;101999.00;5272590;28;20050;-48
2023/10/06 06:54:46;;;;;;;5.55;2.35;;;15.30;99.90;;;16.44;100.00;102011.56;5292483;28;20055;-48
2023/10/06 06:57:19;;;;;;;4.22;2.38;;;15.80;99.90;;;16.76;100.00;101999.38;5277041;28;20055;-49
2023/10/06 06:59:52;;;;;;;5.70;2.38;;;16.20;99.90;;;17.29;100.00;101998.19;5267239;28;20055;-47
2023/10/06 07:02:26;;;;;;;5.60;2.25;;;16.60;99.90;;;17.81;100.00;102003.94;5268970;28;20057;-49
2023/10/06 07:04:59;;;;;;;6.35;2.35;;;17.10;99.90;;;18.24;98.60;102015.47;5265669;28;20063;-49
2023/10/06 07:07:34;;;;;;;4.60;2.60;;;17.50;99.90;;;18.57;97.10;102010.94;5279362;28;20434;-49
2023/10/06 07:10:11;;;;;;;6.07;1.98;;;17.90;99.90;;;18.76;96.98;102011.34;5275400;27;20600;-48
2023/10/06 07:12:44;;;;;;;5.75;2.13;;;18.10;99.90;;;18.90;94.99;102016.06;5271221;27;20052;-48
2023/10/06 07:15:17;;;;;;;4.43;2.28;;;18.40;99.90;;;18.95;93.56;102013.50;5283581;27;20501;-48
2023/10/06 07:17:54;;;;;;;7.25;2.40;;;18.50;99.90;;;18.85;92.39;102012.47;5278329;28;20520;-47
2023/10/06 07:20:29;;;;;;;5.70;2.05;;;18.50;99.90;;;18.72;93.23;102025.38;5271501;27;20043;-48
2023/10/06 07:23:02;;;;;;;5.03;2.58;;;18.40;99.90;;;18.55;93.59;102023.22;5272651;27;20523;-48
2023/10/06 07:25:38;;;;;;;3.67;2.05;;;18.30;99.90;;;18.33;93.97;102023.63;5275756;27;20139;-48
2023/10/06 07:28:12;;;;;;;5.03;2.30;;;18.10;99.90;;;18.12;95.42;102027.53;5272826;27;20410;-48
2023/10/06 07:30:45;;;;;;;5.03;2.08;;;17.90;99.90;;;17.95;95.97;102022.72;5277349;27;20062;-48
2023/10/06 07:33:19;;;;;;;5.00;1.90;;;17.80;99.90;;;17.82;97.29;102018.91;5285142;27;20043;-50
2023/10/06 07:35:53;;;;;;;7.20;2.60;;;17.60;99.90;;;17.73;97.88;102021.28;5278985;27;20053;-49
2023/10/06 07:38:26;;;;;;;6.75;2.67;;;17.50;99.90;;;17.65;98.75;102023.72;5284148;27;20050;-51
2023/10/06 07:40:58;;;;;;;4.50;1.90;;;17.40;99.90;;;17.58;99.28;102017.38;5278819;27;20147;-50
2023/10/06 07:43:31;;;;;;;4.43;1.83;;;17.30;99.90;;;17.50;98.80;102012.78;5285604;27;20055;-51
2023/10/06 07:46:07;;;;;;;5.10;2.40;;;17.30;99.90;;;17.42;99.37;102020.50;5277651;28;20064;-51
2023/10/06 07:48:41;;;;;;;7.43;2.15;;;17.10;99.90;;;17.41;99.78;102021.34;5288966;27;20043;-50
2023/10/06 07:51:14;;;;;;;5.32;2.10;;;17.10;99.90;;;17.42;100.00;102020.50;5275119;28;20047;-50
2023/10/06 07:53:49;;;;;;;4.43;2.00;;;17.10;99.90;;;17.58;100.00;102020.03;5275062;27;20440;-51
2023/10/06 07:56:22;;;;;;;3.90;1.75;;;17.10;99.90;;;17.79;100.00;102010.91;5285556;27;20082;-51
2023/10/06 07:58:54;;;;;;;4.90;2.00;;;17.20;99.90;;;17.90;99.52;102009.41;5270887;27;20138;-48
2023/10/06 08:01:29;;;;;;;4.53;1.77;;;17.30;99.90;;;17.89;98.38;102002.38;5273596;27;20054;-48
2023/10/06 08:04:04;;;;;;;4.60;2.25;;;17.40;99.90;;;17.82;98.64;101997.81;5296789;27;20062;-47
2023/10/06 08:06:36;;;;;;;5.50;1.88;;;17.30;99.90;;;17.76;98.80;102002.94;5269856;28;20051;-49
2023/10/06 08:09:10;;;;;;;3.92;2.10;;;17.30;99.90;;;17.70;99.25;101994.84;5275549;28;20437;-48
2023/10/06 08:11:46;;;;;;;4.88;1.73;;;17.30;99.90;;;17.65;99.15;101997.34;5284759;28;20096;-49
2023/10/06 08:14:18;;;;;;;5.35;2.20;;;17.30;99.90;;;17.68;99.46;101999.19;5273516;28;20418;-49
2023/10/06 08:16:50;;;;;;;5.53;1.80;;;17.30;99.90;;;17.77;99.47;102002.97;5271749;27;20051;-49
2023/10/06 08:19:27;;;;;;;3.50;2.10;;;17.30;99.90;;;18.02;99.07;102008.81;5272001;27;20046;-49
2023/10/06 08:21:59;;;;;;;4.22;1.95;;;17.40;99.90;;;18.18;97.85;102005.66;5270490;28;20051;-48
2023/10/06 08:24:32;;;;;;;5.88;1.70;;;17.50;99.90;;;18.48;97.70;102004.59;5277086;27;20090;-49
2023/10/06 08:27:06;;;;;;;4.80;1.90;;;17.70;99.90;;;18.98;96.01;102005.66;5268086;28;20391;-48
2023/10/06 08:29:38;;;;;;;3.78;1.60;;;18.10;99.90;;;19.20;94.27;101994.63;5268969;27;20138;-49
2023/10/06 08:32:11;;;;;;;2.80;1.63;;;18.40;99.90;;;19.34;93.41;101993.97;5272110;28;20414;-49
2023/10/06 08:34:46;;;;;;;3.63;1.75;;;18.50;99.90;;;19.40;92.96;102002.03;5272032;28;20448;-49
2023/10/06 08:37:19;;;;;;;4.43;1.70;;;18.60;99.90;;;19.46;92.16;101996.84;5274852;28;20075;-48
2023/10/06 08:39:51;;;;;;;4.95;1.45;;;18.70;99.90;;;19.65;91.84;102003.38;5271898;27;20055;-48
2023/10/06 08:42:25;;;;;;;4.68;1.60;;;18.90;99.90;;;19.88;91.17;102003.72;5270512;27;20039;-50
2023/10/06 08:44:57;;;;;;;4.57;1.95;;;19.10;99.90;;;19.97;90.50;101993.31;5274992;28;20456;-49
2023/10/06 08:47:30;;;;;;;2.95;1.17;;;19.20;99.90;;;20.03;90.54;101996.03;5270599;27;20054;-49
2023/10/06 08:50:06;;;;;;;2.95;1.50;;;19.30;99.80;;;19.99;90.01;101994.22;5271903;28;20085;-49
2023/10/06 08:52:39;;;;;;;4.38;1.63;;;19.40;99.50;;;19.99;89.91;101991.56;5290185;27;20051;-48
2023/10/06 08:55:14;;;;;;;4.38;1.80;;;19.50;99.30;;;19.96;90.07;101986.22;5279409;27;20522;-49
2023/10/06 08:57:52;;;;;;;4.85;1.52;;;19.50;99.20;;;19.96;89.95;101994.16;5289563;27;20052;-48
2023/10/06 09:00:25;;;;;;;2.80;1.42;;;19.50;99.10;;;19.88;90.02;101994.03;5274334;27;20040;-48
2023/10/06 09:03:07;;;;;;;2.17;1.70;;;19.40;99.00;;;19.80;90.42;101998.31;5268620;28;20417;-49
2023/10/06 09:05:42;;;;;;;4.28;1.67;;;19.40;99.10;;;19.52;90.61;101986.38;5267935;28;20048;-48
2023/10/06 09:08:15;;;;;;;4.60;1.60;;;19.20;99.00;;;19.32;91.43;101987.78;5271691;28;20044;-50
2023/10/06 09:10:50;;;;;;;2.40;1.30;;;19.10;99.20;;;19.37;92.57;101986.13;5292039;27;20028;-49
2023/10/06 09:13:23;;;;;;;3.42;1.63;;;19.00;99.70;;;19.62;92.28;101988.31;5277210;27;20764;-49
2023/10/06 09:16:02;;;;;;;2.83;1.50;;;19.20;99.90;;;19.84;91.39;101978.09;5289115;27;20464;-48
2023/10/06 09:18:38;;;;;;;4.43;1.50;;;19.30;99.60;;;19.95;90.65;101976.50;5268816;28;20085;-49
2023/10/06 09:21:19;;;;;;;3.60;1.52;;;19.40;99.20;;;20.00;90.63;101975.69;5275397;28;20047;-48
2023/10/06 09:23:54;;;;;;;3.40;1.42;;;19.50;99.30;;;20.14;90.74;101973.25;5267705;28;20417;-48
2023/10/06 09:26:30;;;;;;;4.65;1.40;;;19.60;99.30;;;20.30;90.43;101975.25;5269450;28;20047;-49
2023/10/06 09:29:03;;;;;;;5.10;1.42;;;19.70;99.20;;;20.40;89.87;101980.66;5269897;28;20039;-49
2023/10/06 09:31:44;;;;;;;3.22;1.35;;;19.80;99.00;;;20.57;89.41;101973.84;5269537;27;20047;-51
2023/10/06 09:34:25;;;;;;;2.65;1.52;;;20.00;98.90;;;20.82;88.72;101962.69;5275478;28;20049;-50
2023/10/06 09:37:18;;;;;;;3.70;1.27;;;20.20;98.70;;;21.07;87.83;101970.91;5274421;28;20052;-50
2023/10/06 09:40:10;;;;;;;2.38;1.20;;;20.40;98.40;;;21.32;87.30;101965.00;5270955;28;20134;-51
2023/10/06 09:42:47;;;;;;;2.38;1.40;;;20.60;98.20;;;21.65;88.43;101958.19;5295590;27;20128;-51
2023/10/06 09:45:24;;;;;;;3.85;1.30;;;20.90;98.60;;;21.92;87.28;101950.41;5272017;28;20043;-50
2023/10/06 09:48:02;;;;;;;3.42;1.40;;;21.20;98.30;;;22.08;84.94;101958.47;5267606;28;20054;-50
2023/10/06 09:50:40;;;;;;;4.25;1.35;;;21.40;97.30;;;22.15;84.49;101949.69;5274869;27;20031;-51
2023/10/06 09:53:14;;;;;;;6.18;1.50;;;21.50;96.90;;;22.16;84.08;101948.78;5269906;28;20051;-51
2023/10/06 09:55:52;;;;;;;4.03;1.40;;;21.50;96.70;;;22.26;83.66;101945.31;5269109;28;20093;-51
2023/10/06 09:58:24;;;;;;;3.50;1.23;;;21.60;96.50;;;22.37;83.91;101943.59;5275978;27;20131;-51
2023/10/06 10:01:00;;;;;;;3.95;1.40;;;21.70;96.60;;;22.36;82.66;101936.50;5281159;28;20039;-51
2023/10/06 10:03:34;;;;;;;2.67;1.40;;;21.70;96.00;;;22.36;82.67;101946.22;5271590;27;20043;-51
2023/10/06 10:06:07;;;;;;;3.28;1.30;;;21.80;95.80;;;22.37;82.54;101932.97;5275073;28;20047;-52
2023/10/06 10:08:41;;;;;;;2.67;1.40;;;21.80;95.70;;;22.41;82.73;101934.75;5270072;28;20506;-50
2023/10/06 10:11:16;;;;;;;;;;;21.80;95.80;;;22.49;82.91;101926.81;5280101;28;20494;-51
2023/10/06 10:14:15;;;;;;;3.75;1.55;;;21.90;95.80;;;22.46;81.29;101937.44;5276791;28;19923;-50
2023/10/06 10:17:04;;;;;;;2.30;1.10;;;21.90;95.10;;;22.56;80.93;101938.34;5285916;28;20047;-50
2023/10/06 10:19:37;;;;;;;3.03;1.50;;;22.00;95.00;;;22.55;81.54;101936.56;5275102;28;20075;-51
2023/10/06 10:22:13;;;;;;;2.92;1.25;;;22.00;95.00;;;22.65;82.79;101930.41;5267039;28;20048;-50
2023/10/06 10:24:47;;;;;;;3.17;1.48;;;22.00;95.60;;;22.74;82.04;101927.78;5269851;28;20043;-50
2023/10/06 10:27:22;;;;;;;2.58;1.20;;;22.10;95.30;;;22.79;81.63;101920.69;5272467;28;20044;-50
2023/10/06 10:29:54;;;;;;;3.55;1.40;;;22.20;95.10;;;22.78;81.08;101924.25;5269914;28;20048;-50
2023/10/06 10:32:30;;;;;;;2.80;1.45;;;22.20;94.80;;;22.88;81.33;101917.19;5271745;28;20055;-51
2023/10/06 10:35:12;;;;;;;3.33;1.10;;;22.20;94.70;;;22.87;80.95;101918.97;5267686;28;20043;-49
2023/10/06 10:37:57;;;;;;;3.53;1.45;;;22.20;94.60;;;22.89;80.28;101908.38;5271722;28;20416;-49
2023/10/06 10:40:33;;;;;;;2.72;1.10;;;22.20;94.40;;;22.90;77.90;101916.34;5272169;28;20460;-50